Terminal Aerodrome Forecast
Issued by NWS

Home | Current Version | Previous Version | Text Only | Print | Product List | Glossary On
Versions: 1 2 3 4 5 6 7 8 9 10 11 12 13 14 15 16 17 18 19
000
FTUS41 KBOX 180912 AAA
TAFBAF
TAF AMD
KBAF 180912Z 1809/1906 02004KT 3SM -RA OVC015
     FM181200 01005KT 2SM -RA BR OVC008
     FM182000 36005KT 3SM -DZ BR OVC010
     FM182300 VRB04KT P6SM OVC015=

USA.gov is the U.S. government's official web portal to all federal, state and local government web resources and services.